createdAt,value
2022-09-15T00:08:51.897Z,71
2022-09-15T00:18:59.350Z,70
2022-09-15T00:29:07.207Z,70
2022-09-15T00:39:14.730Z,70
2022-09-15T00:49:22.128Z,71
2022-09-15T00:59:42.359Z,71
2022-09-15T01:09:39.250Z,71
2022-09-15T01:19:46.188Z,71
2022-09-15T01:29:52.747Z,72
2022-09-15T01:39:59.269Z,72
2022-09-15T01:50:06.280Z,73
2022-09-15T02:00:13.703Z,72
2022-09-15T02:10:21.373Z,71
2022-09-15T02:20:28.855Z,70
2022-09-15T02:30:36.265Z,70
2022-09-15T02:40:43.704Z,70
2022-09-15T02:50:51.075Z,69
2022-09-15T03:00:58.536Z,69
2022-09-15T03:11:05.967Z,69
2022-09-15T03:21:13.439Z,70
2022-09-15T03:31:20.901Z,69
2022-09-15T03:41:28.343Z,70
2022-09-15T03:51:35.830Z,69
2022-09-15T04:01:43.330Z,68
2022-09-15T04:11:50.705Z,67
2022-09-15T04:21:58.122Z,66
2022-09-15T04:32:05.616Z,65
2022-09-15T04:42:14.051Z,65
2022-09-15T04:52:23.382Z,65
2022-09-15T05:02:30.903Z,66
2022-09-15T05:12:38.297Z,66
2022-09-15T05:22:45.851Z,66
2022-09-15T05:32:54.470Z,67
2022-09-15T05:43:02.980Z,67
2022-09-15T05:53:11.562Z,68
2022-09-15T06:03:20.210Z,67
2022-09-15T06:13:26.705Z,67
2022-09-15T06:23:37.121Z,67
2022-09-15T06:33:35.708Z,67
2022-09-15T06:43:43.216Z,67
2022-09-15T06:53:52.733Z,66
2022-09-15T07:04:00.325Z,67
2022-09-15T07:14:08.966Z,66
2022-09-15T07:24:16.400Z,65
2022-09-15T07:34:23.822Z,64
2022-09-15T07:44:31.302Z,60
2022-09-15T07:54:42.284Z,55
2022-09-15T08:04:49.795Z,51
2022-09-15T08:14:57.294Z,51
2022-09-15T08:45:09.374Z,47
2022-09-15T08:55:16.845Z,46
2022-09-15T09:05:24.361Z,45
2022-09-15T09:15:34.346Z,45
2022-09-15T09:25:42.431Z,45
2022-09-15T09:35:50.967Z,44
2022-09-15T09:46:00.839Z,45
2022-09-15T09:55:59.590Z,44
2022-09-15T10:06:07.043Z,42
2022-09-15T10:16:14.546Z,42
2022-09-15T10:26:22.024Z,43
2022-09-15T10:36:29.520Z,43
2022-09-15T10:46:39.328Z,44
2022-09-15T10:56:43.732Z,45
2022-09-15T11:06:52.505Z,44
2022-09-15T11:17:00.078Z,43
2022-09-15T11:27:07.575Z,42
2022-09-15T11:37:17.014Z,43
2022-09-15T11:47:24.445Z,42
2022-09-15T11:57:32.020Z,43
2022-09-15T12:07:39.503Z,43
2022-09-15T12:17:47.163Z,44
2022-09-15T12:27:55.057Z,46
2022-09-15T12:38:02.541Z,43
2022-09-15T12:48:10.196Z,44
2022-09-15T12:58:17.701Z,47
2022-09-15T13:08:27.007Z,47
2022-09-15T13:18:34.464Z,49
2022-09-15T13:28:42.500Z,48
2022-09-15T13:38:50.425Z,49
2022-09-15T13:48:57.889Z,49
2022-09-15T13:59:11.057Z,49
2022-09-15T14:09:11.041Z,51
2022-09-15T14:19:18.640Z,52
2022-09-15T14:29:26.209Z,55
2022-09-15T14:39:33.790Z,54
2022-09-15T14:49:41.353Z,53
2022-09-15T14:59:53.182Z,54
2022-09-15T15:09:50.692Z,53
2022-09-15T15:19:58.186Z,55
2022-09-15T15:30:06.771Z,56
2022-09-15T15:40:14.356Z,57
2022-09-15T15:50:21.725Z,55
2022-09-15T16:00:29.167Z,56
2022-09-15T16:10:36.630Z,53
2022-09-15T16:20:44.129Z,53
2022-09-15T16:30:51.533Z,54
2022-09-15T16:40:59.129Z,55
2022-09-15T16:51:28.652Z,55
2022-09-15T17:01:12.263Z,55
2022-09-15T17:11:19.936Z,56
2022-09-15T17:21:27.659Z,56
2022-09-15T17:31:35.492Z,58
2022-09-15T17:41:43.099Z,59
2022-09-15T17:51:50.632Z,59
2022-09-15T18:01:58.607Z,60
2022-09-15T18:12:08.585Z,61
2022-09-15T18:22:17.649Z,62
2022-09-15T18:32:26.894Z,63
2022-09-15T18:42:31.319Z,63
2022-09-15T18:52:30.184Z,63
2022-09-15T19:32:44.455Z,64
2022-09-15T19:52:57.554Z,64
2022-09-15T20:03:00.883Z,65
2022-09-15T20:23:10.215Z,65
2022-09-15T20:33:18.058Z,65
2022-09-15T20:53:27.316Z,68
2022-09-15T21:03:34.894Z,68
2022-09-15T21:13:42.390Z,67
2022-09-15T21:23:49.778Z,67
2022-09-15T21:33:57.303Z,67
2022-09-15T21:44:04.730Z,68
2022-09-15T21:54:12.308Z,69
2022-09-15T22:04:19.827Z,69
2022-09-15T22:14:27.198Z,70
2022-09-15T22:24:34.684Z,69
2022-09-15T22:34:42.133Z,69
2022-09-15T22:44:49.699Z,70
2022-09-15T22:54:57.073Z,69
2022-09-15T23:05:04.406Z,71
2022-09-15T23:15:11.977Z,72
2022-09-15T23:25:19.559Z,73
2022-09-15T23:35:27.895Z,73
2022-09-15T23:45:35.363Z,74
2022-09-15T23:55:42.825Z,74
